Terminal Aerodrome Forecast
Issued by NWS

Home | Current Version | Previous Version | Text Only | Print | Product List | Glossary On
Versions: 1 2 3 4 5 6 7 8 9 10 11 12 13 14
925
FTUS43 KGRR 072345
TAFAZO
TAF
KAZO 072345Z 0800/0824 22007KT P6SM BKN035
     FM080200 22006KT P6SM SCT035
     FM081000 22004KT 4SM BR VCSH BKN009
     FM081600 27006KT 3SM BR VCSH OVC015=

USA.gov is the U.S. government's official web portal to all federal, state and local government web resources and services.